sensor_id;sensor_type;location;lat;lon;timestamp;P1;durP1;ratioP1;P2;durP2;ratioP2
69981;SDS011;57319;56.274;43.980;2022-11-15T00:01:29;7.97;;;1.15;;
69981;SDS011;57319;56.274;43.980;2022-11-15T00:03:54;2.17;;;1.33;;
69981;SDS011;57319;56.274;43.980;2022-11-15T00:06:20;5.05;;;1.35;;
69981;SDS011;57319;56.274;43.980;2022-11-15T00:08:45;6.20;;;1.25;;
69981;SDS011;57319;56.274;43.980;2022-11-15T00:11:11;7.00;;;1.30;;
69981;SDS011;57319;56.274;43.980;2022-11-15T00:13:37;11.70;;;1.90;;
69981;SDS011;57319;56.274;43.980;2022-11-15T00:16:03;5.15;;;1.50;;
69981;SDS011;57319;56.274;43.980;2022-11-15T00:18:29;1.00;;;1.00;;
69981;SDS011;57319;56.274;43.980;2022-11-15T00:20:55;3.88;;;0.90;;
69981;SDS011;57319;56.274;43.980;2022-11-15T00:23:27;4.63;;;1.25;;
69981;SDS011;57319;56.274;43.980;2022-11-15T00:25:59;2.05;;;0.90;;
69981;SDS011;57319;56.274;43.980;2022-11-15T00:28:25;2.30;;;1.17;;
69981;SDS011;57319;56.274;43.980;2022-11-15T00:30:51;1.80;;;0.73;;
69981;SDS011;57319;56.274;43.980;2022-11-15T00:33:16;4.47;;;1.23;;
69981;SDS011;57319;56.274;43.980;2022-11-15T00:35:42;2.05;;;1.50;;
69981;SDS011;57319;56.274;43.980;2022-11-15T00:38:08;3.88;;;1.00;;
69981;SDS011;57319;56.274;43.980;2022-11-15T00:40:33;6.20;;;1.23;;
69981;SDS011;57319;56.274;43.980;2022-11-15T00:42:59;6.60;;;1.15;;
69981;SDS011;57319;56.274;43.980;2022-11-15T00:45:25;4.03;;;1.10;;
69981;SDS011;57319;56.274;43.980;2022-11-15T00:47:51;2.63;;;0.50;;
69981;SDS011;57319;56.274;43.980;2022-11-15T00:50:17;1.85;;;0.90;;
69981;SDS011;57319;56.274;43.980;2022-11-15T00:52:43;2.25;;;1.00;;
69981;SDS011;57319;56.274;43.980;2022-11-15T00:55:13;7.75;;;1.10;;
69981;SDS011;57319;56.274;43.980;2022-11-15T00:57:40;1.30;;;0.73;;
69981;SDS011;57319;56.274;43.980;2022-11-15T01:00:06;4.25;;;1.00;;
69981;SDS011;57319;56.274;43.980;2022-11-15T01:02:32;2.55;;;1.13;;
69981;SDS011;57319;56.274;43.980;2022-11-15T01:04:57;4.20;;;1.05;;
69981;SDS011;57319;56.274;43.980;2022-11-15T01:07:23;2.95;;;0.95;;
69981;SDS011;57319;56.274;43.980;2022-11-15T01:09:49;1.85;;;1.15;;
69981;SDS011;57319;56.274;43.980;2022-11-15T01:12:14;0.77;;;0.77;;
69981;SDS011;57319;56.274;43.980;2022-11-15T01:14:40;3.60;;;0.95;;
69981;SDS011;57319;56.274;43.980;2022-11-15T01:17:06;1.13;;;0.82;;
69981;SDS011;57319;56.274;43.980;2022-11-15T01:19:31;1.38;;;0.82;;
69981;SDS011;57319;56.274;43.980;2022-11-15T01:21:57;2.97;;;0.90;;
69981;SDS011;57319;56.274;43.980;2022-11-15T01:24:22;0.57;;;0.57;;
69981;SDS011;57319;56.274;43.980;2022-11-15T01:26:48;5.07;;;0.60;;
69981;SDS011;57319;56.274;43.980;2022-11-15T01:29:13;0.70;;;0.60;;
69981;SDS011;57319;56.274;43.980;2022-11-15T01:31:39;1.00;;;0.95;;
69981;SDS011;57319;56.274;43.980;2022-11-15T01:34:05;7.65;;;0.98;;
69981;SDS011;57319;56.274;43.980;2022-11-15T01:36:30;2.05;;;0.60;;
69981;SDS011;57319;56.274;43.980;2022-11-15T01:38:56;2.40;;;0.90;;
69981;SDS011;57319;56.274;43.980;2022-11-15T01:41:24;2.17;;;1.10;;
69981;SDS011;57319;56.274;43.980;2022-11-15T01:43:53;0.85;;;0.57;;
69981;SDS011;57319;56.274;43.980;2022-11-15T01:46:24;4.75;;;0.93;;
69981;SDS011;57319;56.274;43.980;2022-11-15T01:49:02;2.65;;;1.08;;
69981;SDS011;57319;56.274;43.980;2022-11-15T01:51:36;6.22;;;0.85;;
69981;SDS011;57319;56.274;43.980;2022-11-15T01:54:06;2.47;;;0.70;;
69981;SDS011;57319;56.274;43.980;2022-11-15T01:56:36;1.02;;;0.80;;
69981;SDS011;57319;56.274;43.980;2022-11-15T01:59:10;3.20;;;1.00;;
69981;SDS011;57319;56.274;43.980;2022-11-15T02:01:36;0.80;;;0.80;;
69981;SDS011;57319;56.274;43.980;2022-11-15T02:06:37;4.78;;;1.00;;
69981;SDS011;57319;56.274;43.980;2022-11-15T02:09:04;1.45;;;0.88;;
69981;SDS011;57319;56.274;43.980;2022-11-15T02:11:30;4.90;;;0.90;;
69981;SDS011;57319;56.274;43.980;2022-11-15T02:13:56;3.08;;;0.90;;
69981;SDS011;57319;56.274;43.980;2022-11-15T02:19:40;0.80;;;0.75;;
69981;SDS011;57319;56.274;43.980;2022-11-15T02:30:45;9.43;;;0.95;;
69981;SDS011;57319;56.274;43.980;2022-11-15T02:36:43;2.13;;;1.00;;
69981;SDS011;57319;56.274;43.980;2022-11-15T02:41:27;1.70;;;0.68;;
69981;SDS011;57319;56.274;43.980;2022-11-15T02:46:45;9.20;;;1.00;;
69981;SDS011;57319;56.274;43.980;2022-11-15T02:49:31;9.05;;;0.98;;
69981;SDS011;57319;56.274;43.980;2022-11-15T02:51:59;1.08;;;0.85;;
69981;SDS011;57319;56.274;43.980;2022-11-15T02:54:25;5.18;;;1.10;;
69981;SDS011;57319;56.274;43.980;2022-11-15T02:56:55;7.60;;;1.77;;
69981;SDS011;57319;56.274;43.980;2022-11-15T02:59:48;2.67;;;1.10;;
69981;SDS011;57319;56.274;43.980;2022-11-15T03:05:18;7.90;;;1.17;;
69981;SDS011;57319;56.274;43.980;2022-11-15T03:13:27;5.90;;;1.20;;
69981;SDS011;57319;56.274;43.980;2022-11-15T03:18:33;2.80;;;1.08;;
69981;SDS011;57319;56.274;43.980;2022-11-15T03:21:05;4.68;;;1.17;;
69981;SDS011;57319;56.274;43.980;2022-11-15T03:23:33;7.53;;;0.85;;
69981;SDS011;57319;56.274;43.980;2022-11-15T03:26:04;5.70;;;1.15;;
69981;SDS011;57319;56.274;43.980;2022-11-15T03:29:08;1.75;;;0.90;;
69981;SDS011;57319;56.274;43.980;2022-11-15T03:31:31;2.17;;;1.05;;
69981;SDS011;57319;56.274;43.980;2022-11-15T03:34:13;4.00;;;1.15;;
69981;SDS011;57319;56.274;43.980;2022-11-15T03:36:57;0.90;;;0.90;;
69981;SDS011;57319;56.274;43.980;2022-11-15T03:39:23;1.45;;;0.93;;
69981;SDS011;57319;56.274;43.980;2022-11-15T03:44:59;13.27;;;1.10;;
69981;SDS011;57319;56.274;43.980;2022-11-15T03:47:49;21.85;;;1.50;;
69981;SDS011;57319;56.274;43.980;2022-11-15T03:50:20;5.32;;;1.00;;
69981;SDS011;57319;56.274;43.980;2022-11-15T03:52:48;13.63;;;1.55;;
69981;SDS011;57319;56.274;43.980;2022-11-15T03:55:16;4.07;;;0.68;;
69981;SDS011;57319;56.274;43.980;2022-11-15T03:57:44;13.55;;;1.55;;
69981;SDS011;57319;56.274;43.980;2022-11-15T04:00:10;1.35;;;1.15;;
69981;SDS011;57319;56.274;43.980;2022-11-15T04:02:36;14.43;;;1.52;;
69981;SDS011;57319;56.274;43.980;2022-11-15T04:05:02;9.63;;;1.60;;
69981;SDS011;57319;56.274;43.980;2022-11-15T04:07:28;5.97;;;1.02;;
69981;SDS011;57319;56.274;43.980;2022-11-15T04:09:54;9.98;;;1.80;;
69981;SDS011;57319;56.274;43.980;2022-11-15T04:12:29;3.97;;;1.45;;
69981;SDS011;57319;56.274;43.980;2022-11-15T04:14:59;6.53;;;1.05;;
69981;SDS011;57319;56.274;43.980;2022-11-15T04:17:42;5.53;;;1.33;;
69981;SDS011;57319;56.274;43.980;2022-11-15T04:20:22;6.10;;;1.60;;
69981;SDS011;57319;56.274;43.980;2022-11-15T04:23:09;9.63;;;1.50;;
69981;SDS011;57319;56.274;43.980;2022-11-15T04:25:55;12.35;;;1.48;;
69981;SDS011;57319;56.274;43.980;2022-11-15T04:28:23;7.90;;;0.95;;
69981;SDS011;57319;56.274;43.980;2022-11-15T04:30:48;7.00;;;1.05;;
69981;SDS011;57319;56.274;43.980;2022-11-15T04:33:14;8.38;;;1.58;;
69981;SDS011;57319;56.274;43.980;2022-11-15T04:35:40;8.32;;;1.92;;
69981;SDS011;57319;56.274;43.980;2022-11-15T04:38:07;6.03;;;1.30;;
69981;SDS011;57319;56.274;43.980;2022-11-15T04:40:35;14.15;;;1.70;;
69981;SDS011;57319;56.274;43.980;2022-11-15T04:43:03;3.40;;;1.05;;
69981;SDS011;57319;56.274;43.980;2022-11-15T04:45:31;1.55;;;1.52;;
69981;SDS011;57319;56.274;43.980;2022-11-15T04:47:57;9.93;;;1.40;;
69981;SDS011;57319;56.274;43.980;2022-11-15T04:50:23;8.70;;;1.48;;
69981;SDS011;57319;56.274;43.980;2022-11-15T04:52:52;11.45;;;1.60;;
69981;SDS011;57319;56.274;43.980;2022-11-15T04:55:19;2.35;;;1.35;;
69981;SDS011;57319;56.274;43.980;2022-11-15T04:57:45;16.10;;;1.70;;
69981;SDS011;57319;56.274;43.980;2022-11-15T05:00:11;8.13;;;1.83;;
69981;SDS011;57319;56.274;43.980;2022-11-15T05:02:39;3.10;;;1.10;;
69981;SDS011;57319;56.274;43.980;2022-11-15T05:05:23;5.53;;;1.30;;
69981;SDS011;57319;56.274;43.980;2022-11-15T05:07:49;3.35;;;1.30;;
69981;SDS011;57319;56.274;43.980;2022-11-15T05:10:15;13.98;;;1.45;;
69981;SDS011;57319;56.274;43.980;2022-11-15T05:12:42;10.90;;;1.73;;
69981;SDS011;57319;56.274;43.980;2022-11-15T05:15:08;4.65;;;1.30;;
69981;SDS011;57319;56.274;43.980;2022-11-15T05:17:34;19.75;;;2.38;;
69981;SDS011;57319;56.274;43.980;2022-11-15T05:19:59;16.30;;;1.58;;
69981;SDS011;57319;56.274;43.980;2022-11-15T05:22:26;25.77;;;1.60;;
69981;SDS011;57319;56.274;43.980;2022-11-15T05:24:52;5.45;;;1.00;;
69981;SDS011;57319;56.274;43.980;2022-11-15T05:27:17;15.98;;;1.63;;
69981;SDS011;57319;56.274;43.980;2022-11-15T05:29:46;5.13;;;1.40;;
69981;SDS011;57319;56.274;43.980;2022-11-15T05:32:13;4.88;;;1.00;;
69981;SDS011;57319;56.274;43.980;2022-11-15T05:34:42;7.93;;;1.73;;
69981;SDS011;57319;56.274;43.980;2022-11-15T05:37:08;8.93;;;1.10;;
69981;SDS011;57319;56.274;43.980;2022-11-15T05:39:34;4.47;;;1.48;;
69981;SDS011;57319;56.274;43.980;2022-11-15T05:42:05;4.75;;;1.63;;
69981;SDS011;57319;56.274;43.980;2022-11-15T05:44:39;10.18;;;1.90;;
69981;SDS011;57319;56.274;43.980;2022-11-15T05:47:11;6.53;;;1.67;;
69981;SDS011;57319;56.274;43.980;2022-11-15T05:49:42;5.22;;;1.27;;
69981;SDS011;57319;56.274;43.980;2022-11-15T05:52:09;17.33;;;1.80;;
69981;SDS011;57319;56.274;43.980;2022-11-15T05:54:39;20.08;;;1.17;;
69981;SDS011;57319;56.274;43.980;2022-11-15T05:57:04;11.77;;;1.45;;
69981;SDS011;57319;56.274;43.980;2022-11-15T05:59:33;11.93;;;1.50;;
69981;SDS011;57319;56.274;43.980;2022-11-15T06:02:26;10.30;;;0.77;;
69981;SDS011;57319;56.274;43.980;2022-11-15T06:04:57;23.30;;;1.50;;
69981;SDS011;57319;56.274;43.980;2022-11-15T06:07:25;19.60;;;1.88;;
69981;SDS011;57319;56.274;43.980;2022-11-15T06:09:56;5.57;;;1.38;;
69981;SDS011;57319;56.274;43.980;2022-11-15T06:12:31;6.32;;;1.92;;
69981;SDS011;57319;56.274;43.980;2022-11-15T06:14:59;16.60;;;1.70;;
69981;SDS011;57319;56.274;43.980;2022-11-15T06:17:25;3.13;;;1.42;;
69981;SDS011;57319;56.274;43.980;2022-11-15T06:20:02;19.30;;;2.17;;
69981;SDS011;57319;56.274;43.980;2022-11-15T06:22:28;12.65;;;1.67;;
69981;SDS011;57319;56.274;43.980;2022-11-15T06:24:54;16.45;;;2.30;;
69981;SDS011;57319;56.274;43.980;2022-11-15T06:27:20;11.98;;;1.58;;
69981;SDS011;57319;56.274;43.980;2022-11-15T06:29:51;6.03;;;1.80;;
69981;SDS011;57319;56.274;43.980;2022-11-15T06:32:24;11.82;;;1.23;;
69981;SDS011;57319;56.274;43.980;2022-11-15T06:34:51;6.95;;;1.67;;
69981;SDS011;57319;56.274;43.980;2022-11-15T06:37:17;9.05;;;2.10;;
69981;SDS011;57319;56.274;43.980;2022-11-15T06:39:42;6.10;;;1.48;;
69981;SDS011;57319;56.274;43.980;2022-11-15T06:42:08;5.57;;;1.35;;
69981;SDS011;57319;56.274;43.980;2022-11-15T06:44:34;17.90;;;1.65;;
69981;SDS011;57319;56.274;43.980;2022-11-15T06:47:00;7.25;;;2.03;;
69981;SDS011;57319;56.274;43.980;2022-11-15T06:49:25;4.68;;;1.92;;
69981;SDS011;57319;56.274;43.980;2022-11-15T06:51:51;13.48;;;1.35;;
69981;SDS011;57319;56.274;43.980;2022-11-15T06:54:16;5.10;;;2.05;;
69981;SDS011;57319;56.274;43.980;2022-11-15T06:56:42;1.65;;;1.17;;
69981;SDS011;57319;56.274;43.980;2022-11-15T06:59:08;6.75;;;1.58;;
69981;SDS011;57319;56.274;43.980;2022-11-15T07:01:34;7.80;;;1.40;;
69981;SDS011;57319;56.274;43.980;2022-11-15T07:04:11;21.05;;;1.80;;
69981;SDS011;57319;56.274;43.980;2022-11-15T07:06:51;4.07;;;1.30;;
69981;SDS011;57319;56.274;43.980;2022-11-15T07:09:19;9.38;;;1.30;;
69981;SDS011;57319;56.274;43.980;2022-11-15T07:11:45;6.38;;;1.15;;
69981;SDS011;57319;56.274;43.980;2022-11-15T07:14:17;10.95;;;1.40;;
69981;SDS011;57319;56.274;43.980;2022-11-15T07:16:43;10.05;;;1.52;;
69981;SDS011;57319;56.274;43.980;2022-11-15T07:19:14;4.25;;;1.83;;
69981;SDS011;57319;56.274;43.980;2022-11-15T07:21:41;6.63;;;1.30;;
69981;SDS011;57319;56.274;43.980;2022-11-15T07:24:09;3.30;;;0.90;;
69981;SDS011;57319;56.274;43.980;2022-11-15T07:26:37;8.05;;;1.20;;
69981;SDS011;57319;56.274;43.980;2022-11-15T07:29:04;9.50;;;1.20;;
69981;SDS011;57319;56.274;43.980;2022-11-15T07:31:34;6.18;;;1.38;;
69981;SDS011;57319;56.274;43.980;2022-11-15T07:34:01;23.60;;;3.20;;
69981;SDS011;57319;56.274;43.980;2022-11-15T07:36:32;13.90;;;1.60;;
69981;SDS011;57319;56.274;43.980;2022-11-15T07:38:59;17.58;;;2.72;;
69981;SDS011;57319;56.274;43.980;2022-11-15T07:41:24;21.55;;;2.17;;
69981;SDS011;57319;56.274;43.980;2022-11-15T07:43:54;6.13;;;1.20;;
69981;SDS011;57319;56.274;43.980;2022-11-15T07:46:24;11.85;;;1.70;;
69981;SDS011;57319;56.274;43.980;2022-11-15T07:48:53;5.22;;;1.63;;
69981;SDS011;57319;56.274;43.980;2022-11-15T07:51:18;8.77;;;1.63;;
69981;SDS011;57319;56.274;43.980;2022-11-15T07:53:44;13.50;;;2.03;;
69981;SDS011;57319;56.274;43.980;2022-11-15T07:56:11;8.43;;;1.60;;
69981;SDS011;57319;56.274;43.980;2022-11-15T07:58:37;22.42;;;1.83;;
69981;SDS011;57319;56.274;43.980;2022-11-15T08:01:04;18.25;;;2.78;;
69981;SDS011;57319;56.274;43.980;2022-11-15T08:03:30;11.30;;;1.67;;
69981;SDS011;57319;56.274;43.980;2022-11-15T08:05:58;7.20;;;1.70;;
69981;SDS011;57319;56.274;43.980;2022-11-15T08:08:25;28.58;;;2.15;;
69981;SDS011;57319;56.274;43.980;2022-11-15T08:10:51;7.35;;;2.17;;
69981;SDS011;57319;56.274;43.980;2022-11-15T08:13:17;11.45;;;2.08;;
69981;SDS011;57319;56.274;43.980;2022-11-15T08:15:42;3.40;;;1.20;;
69981;SDS011;57319;56.274;43.980;2022-11-15T08:18:10;24.25;;;1.85;;
69981;SDS011;57319;56.274;43.980;2022-11-15T08:20:37;6.82;;;1.88;;
69981;SDS011;57319;56.274;43.980;2022-11-15T08:23:03;3.75;;;1.35;;
69981;SDS011;57319;56.274;43.980;2022-11-15T08:25:30;2.78;;;1.27;;
69981;SDS011;57319;56.274;43.980;2022-11-15T08:28:00;6.65;;;1.80;;
69981;SDS011;57319;56.274;43.980;2022-11-15T08:30:29;12.40;;;2.10;;
69981;SDS011;57319;56.274;43.980;2022-11-15T08:32:57;12.57;;;1.83;;
69981;SDS011;57319;56.274;43.980;2022-11-15T08:35:25;6.20;;;2.03;;
69981;SDS011;57319;56.274;43.980;2022-11-15T08:37:52;6.35;;;1.98;;
69981;SDS011;57319;56.274;43.980;2022-11-15T08:40:18;13.00;;;2.45;;
69981;SDS011;57319;56.274;43.980;2022-11-15T08:42:48;12.40;;;2.58;;
69981;SDS011;57319;56.274;43.980;2022-11-15T08:45:13;3.75;;;1.95;;
69981;SDS011;57319;56.274;43.980;2022-11-15T08:47:39;10.40;;;2.30;;
69981;SDS011;57319;56.274;43.980;2022-11-15T08:50:05;16.30;;;2.45;;
69981;SDS011;57319;56.274;43.980;2022-11-15T08:52:31;23.15;;;2.28;;
69981;SDS011;57319;56.274;43.980;2022-11-15T08:54:57;3.05;;;1.80;;
69981;SDS011;57319;56.274;43.980;2022-11-15T08:57:23;9.95;;;1.88;;
69981;SDS011;57319;56.274;43.980;2022-11-15T08:59:49;7.90;;;1.77;;
69981;SDS011;57319;56.274;43.980;2022-11-15T09:02:14;14.75;;;2.33;;
69981;SDS011;57319;56.274;43.980;2022-11-15T09:04:41;7.15;;;1.70;;
69981;SDS011;57319;56.274;43.980;2022-11-15T09:07:08;16.70;;;1.75;;
69981;SDS011;57319;56.274;43.980;2022-11-15T09:09:37;10.90;;;1.73;;
69981;SDS011;57319;56.274;43.980;2022-11-15T09:12:04;10.95;;;2.00;;
69981;SDS011;57319;56.274;43.980;2022-11-15T09:14:31;17.35;;;2.47;;
69981;SDS011;57319;56.274;43.980;2022-11-15T09:16:57;16.38;;;2.28;;
69981;SDS011;57319;56.274;43.980;2022-11-15T09:19:23;9.43;;;1.75;;
69981;SDS011;57319;56.274;43.980;2022-11-15T09:21:49;11.63;;;2.40;;
69981;SDS011;57319;56.274;43.980;2022-11-15T09:24:15;9.63;;;2.28;;
69981;SDS011;57319;56.274;43.980;2022-11-15T09:26:40;10.88;;;1.70;;
69981;SDS011;57319;56.274;43.980;2022-11-15T09:29:06;17.67;;;2.25;;
69981;SDS011;57319;56.274;43.980;2022-11-15T09:31:32;3.45;;;1.70;;
69981;SDS011;57319;56.274;43.980;2022-11-15T09:33:57;12.65;;;1.80;;
69981;SDS011;57319;56.274;43.980;2022-11-15T09:36:23;14.98;;;2.78;;
69981;SDS011;57319;56.274;43.980;2022-11-15T09:38:49;7.85;;;2.10;;
69981;SDS011;57319;56.274;43.980;2022-11-15T09:49:13;7.47;;;1.90;;
69981;SDS011;57319;56.274;43.980;2022-11-15T09:51:41;14.20;;;2.00;;
69981;SDS011;57319;56.274;43.980;2022-11-15T09:56:40;7.40;;;2.42;;
69981;SDS011;57319;56.274;43.980;2022-11-15T10:02:21;8.68;;;2.83;;
69981;SDS011;57319;56.274;43.980;2022-11-15T10:05:12;13.88;;;2.28;;
69981;SDS011;57319;56.274;43.980;2022-11-15T10:12:53;15.73;;;2.42;;
69981;SDS011;57319;56.274;43.980;2022-11-15T10:15:19;9.70;;;2.50;;
69981;SDS011;57319;56.274;43.980;2022-11-15T10:23:42;13.80;;;2.30;;
69981;SDS011;57319;56.274;43.980;2022-11-15T10:26:09;9.77;;;2.30;;
69981;SDS011;57319;56.274;43.980;2022-11-15T10:28:39;8.55;;;1.95;;
69981;SDS011;57319;56.274;43.980;2022-11-15T10:31:21;6.50;;;2.03;;
69981;SDS011;57319;56.274;43.980;2022-11-15T10:33:47;6.78;;;2.35;;
69981;SDS011;57319;56.274;43.980;2022-11-15T10:36:15;5.70;;;2.03;;
69981;SDS011;57319;56.274;43.980;2022-11-15T10:41:40;12.02;;;2.38;;
69981;SDS011;57319;56.274;43.980;2022-11-15T10:46:41;10.25;;;2.53;;
69981;SDS011;57319;56.274;43.980;2022-11-15T10:49:12;5.78;;;2.58;;
69981;SDS011;57319;56.274;43.980;2022-11-15T10:51:55;3.95;;;1.58;;
69981;SDS011;57319;56.274;43.980;2022-11-15T10:54:47;10.88;;;2.75;;
69981;SDS011;57319;56.274;43.980;2022-11-15T10:57:18;19.02;;;2.85;;
69981;SDS011;57319;56.274;43.980;2022-11-15T10:59:49;13.30;;;3.38;;
69981;SDS011;57319;56.274;43.980;2022-11-15T11:02:55;6.70;;;2.42;;
69981;SDS011;57319;56.274;43.980;2022-11-15T11:07:56;9.90;;;2.78;;
69981;SDS011;57319;56.274;43.980;2022-11-15T11:10:24;20.80;;;3.08;;
69981;SDS011;57319;56.274;43.980;2022-11-15T11:12:50;4.97;;;1.95;;
69981;SDS011;57319;56.274;43.980;2022-11-15T11:15:18;6.82;;;2.10;;
69981;SDS011;57319;56.274;43.980;2022-11-15T11:20:38;22.58;;;2.22;;
69981;SDS011;57319;56.274;43.980;2022-11-15T11:48:12;11.10;;;3.22;;
69981;SDS011;57319;56.274;43.980;2022-11-15T11:50:45;10.32;;;3.53;;
69981;SDS011;57319;56.274;43.980;2022-11-15T12:00:42;16.17;;;4.47;;
69981;SDS011;57319;56.274;43.980;2022-11-15T12:05:59;18.05;;;4.65;;
69981;SDS011;57319;56.274;43.980;2022-11-15T12:08:30;9.63;;;4.38;;
69981;SDS011;57319;56.274;43.980;2022-11-15T12:11:10;2.60;;;2.42;;
69981;SDS011;57319;56.274;43.980;2022-11-15T12:13:40;12.88;;;3.42;;
69981;SDS011;57319;56.274;43.980;2022-11-15T12:16:17;14.25;;;3.22;;
69981;SDS011;57319;56.274;43.980;2022-11-15T12:18:53;11.05;;;3.97;;
69981;SDS011;57319;56.274;43.980;2022-11-15T12:21:24;23.27;;;4.88;;
69981;SDS011;57319;56.274;43.980;2022-11-15T12:24:08;17.33;;;3.63;;
69981;SDS011;57319;56.274;43.980;2022-11-15T12:32:27;30.27;;;4.30;;
69981;SDS011;57319;56.274;43.980;2022-11-15T12:34:55;21.10;;;4.07;;
69981;SDS011;57319;56.274;43.980;2022-11-15T12:58:42;6.93;;;3.63;;
69981;SDS011;57319;56.274;43.980;2022-11-15T13:06:54;15.73;;;4.60;;
69981;SDS011;57319;56.274;43.980;2022-11-15T13:20:47;14.57;;;3.58;;
69981;SDS011;57319;56.274;43.980;2022-11-15T13:23:13;15.73;;;3.78;;
69981;SDS011;57319;56.274;43.980;2022-11-15T13:28:21;19.48;;;3.80;;
69981;SDS011;57319;56.274;43.980;2022-11-15T13:30:56;20.85;;;4.28;;
69981;SDS011;57319;56.274;43.980;2022-11-15T13:33:25;5.13;;;2.50;;
69981;SDS011;57319;56.274;43.980;2022-11-15T13:35:57;13.52;;;5.13;;
69981;SDS011;57319;56.274;43.980;2022-11-15T13:40:53;17.77;;;4.88;;
69981;SDS011;57319;56.274;43.980;2022-11-15T13:46:07;11.55;;;3.83;;
69981;SDS011;57319;56.274;43.980;2022-11-15T13:48:38;10.65;;;3.85;;
69981;SDS011;57319;56.274;43.980;2022-11-15T13:51:53;13.18;;;3.92;;
69981;SDS011;57319;56.274;43.980;2022-11-15T13:53:58;19.50;;;4.43;;
69981;SDS011;57319;56.274;43.980;2022-11-15T13:56:46;23.27;;;5.25;;
69981;SDS011;57319;56.274;43.980;2022-11-15T13:59:18;19.00;;;4.55;;
69981;SDS011;57319;56.274;43.980;2022-11-15T14:02:11;11.65;;;4.85;;
69981;SDS011;57319;56.274;43.980;2022-11-15T14:04:45;41.78;;;5.47;;
69981;SDS011;57319;56.274;43.980;2022-11-15T14:07:18;23.50;;;5.45;;
69981;SDS011;57319;56.274;43.980;2022-11-15T14:09:46;14.93;;;4.70;;
69981;SDS011;57319;56.274;43.980;2022-11-15T14:12:31;16.85;;;5.03;;
69981;SDS011;57319;56.274;43.980;2022-11-15T14:14:59;14.82;;;4.82;;
69981;SDS011;57319;56.274;43.980;2022-11-15T14:17:43;6.53;;;4.68;;
69981;SDS011;57319;56.274;43.980;2022-11-15T14:22:57;33.40;;;5.68;;
69981;SDS011;57319;56.274;43.980;2022-11-15T14:25:25;20.08;;;4.95;;
69981;SDS011;57319;56.274;43.980;2022-11-15T14:30:38;13.75;;;4.43;;
69981;SDS011;57319;56.274;43.980;2022-11-15T14:35:45;10.77;;;3.65;;
69981;SDS011;57319;56.274;43.980;2022-11-15T14:38:11;19.20;;;3.95;;
69981;SDS011;57319;56.274;43.980;2022-11-15T14:40:37;7.60;;;3.63;;
69981;SDS011;57319;56.274;43.980;2022-11-15T14:43:03;15.25;;;4.38;;
69981;SDS011;57319;56.274;43.980;2022-11-15T14:45:28;9.52;;;3.67;;
69981;SDS011;57319;56.274;43.980;2022-11-15T14:47:54;13.23;;;3.08;;
69981;SDS011;57319;56.274;43.980;2022-11-15T14:50:20;10.98;;;3.65;;
69981;SDS011;57319;56.274;43.980;2022-11-15T14:52:47;12.82;;;3.90;;
69981;SDS011;57319;56.274;43.980;2022-11-15T14:55:17;49.05;;;4.32;;
69981;SDS011;57319;56.274;43.980;2022-11-15T14:57:46;14.15;;;4.10;;
69981;SDS011;57319;56.274;43.980;2022-11-15T15:00:12;21.08;;;4.20;;
69981;SDS011;57319;56.274;43.980;2022-11-15T15:02:39;2.13;;;2.03;;
69981;SDS011;57319;56.274;43.980;2022-11-15T15:05:13;7.75;;;3.83;;
69981;SDS011;57319;56.274;43.980;2022-11-15T15:07:39;10.48;;;3.00;;
69981;SDS011;57319;56.274;43.980;2022-11-15T15:10:05;12.52;;;3.08;;
69981;SDS011;57319;56.274;43.980;2022-11-15T15:12:30;13.80;;;3.65;;
69981;SDS011;57319;56.274;43.980;2022-11-15T15:14:56;12.00;;;2.60;;
69981;SDS011;57319;56.274;43.980;2022-11-15T15:17:21;11.57;;;3.67;;
69981;SDS011;57319;56.274;43.980;2022-11-15T15:19:47;14.65;;;4.45;;
69981;SDS011;57319;56.274;43.980;2022-11-15T15:22:13;12.90;;;4.07;;
69981;SDS011;57319;56.274;43.980;2022-11-15T15:24:41;9.98;;;4.18;;
69981;SDS011;57319;56.274;43.980;2022-11-15T15:27:11;18.23;;;4.53;;
69981;SDS011;57319;56.274;43.980;2022-11-15T15:29:37;26.42;;;4.43;;
69981;SDS011;57319;56.274;43.980;2022-11-15T15:32:04;6.57;;;2.90;;
69981;SDS011;57319;56.274;43.980;2022-11-15T15:34:32;8.85;;;3.65;;
69981;SDS011;57319;56.274;43.980;2022-11-15T15:39:49;15.63;;;3.75;;
69981;SDS011;57319;56.274;43.980;2022-11-15T15:42:24;7.85;;;3.70;;
69981;SDS011;57319;56.274;43.980;2022-11-15T15:44:51;5.72;;;3.53;;
69981;SDS011;57319;56.274;43.980;2022-11-15T15:47:21;19.90;;;4.55;;
69981;SDS011;57319;56.274;43.980;2022-11-15T15:49:50;22.30;;;4.30;;
69981;SDS011;57319;56.274;43.980;2022-11-15T15:52:20;10.80;;;4.30;;
69981;SDS011;57319;56.274;43.980;2022-11-15T15:54:46;18.63;;;3.97;;
69981;SDS011;57319;56.274;43.980;2022-11-15T15:57:12;19.13;;;5.40;;
69981;SDS011;57319;56.274;43.980;2022-11-15T15:59:40;18.13;;;4.55;;
69981;SDS011;57319;56.274;43.980;2022-11-15T16:02:14;10.32;;;4.43;;
69981;SDS011;57319;56.274;43.980;2022-11-15T16:04:42;17.27;;;4.40;;
69981;SDS011;57319;56.274;43.980;2022-11-15T16:07:15;4.05;;;3.33;;
69981;SDS011;57319;56.274;43.980;2022-11-15T16:09:55;21.90;;;3.33;;
69981;SDS011;57319;56.274;43.980;2022-11-15T16:12:30;12.45;;;3.78;;
69981;SDS011;57319;56.274;43.980;2022-11-15T16:14:58;12.40;;;4.47;;
69981;SDS011;57319;56.274;43.980;2022-11-15T16:17:31;23.75;;;4.43;;
69981;SDS011;57319;56.274;43.980;2022-11-15T16:20:02;41.15;;;6.60;;
69981;SDS011;57319;56.274;43.980;2022-11-15T16:22:29;12.43;;;4.15;;
69981;SDS011;57319;56.274;43.980;2022-11-15T16:24:55;18.27;;;5.25;;
69981;SDS011;57319;56.274;43.980;2022-11-15T16:27:21;29.83;;;5.40;;
69981;SDS011;57319;56.274;43.980;2022-11-15T16:29:48;16.13;;;5.32;;
69981;SDS011;57319;56.274;43.980;2022-11-15T16:32:14;21.65;;;4.75;;
69981;SDS011;57319;56.274;43.980;2022-11-15T16:34:41;13.63;;;5.25;;
69981;SDS011;57319;56.274;43.980;2022-11-15T16:37:40;26.77;;;5.80;;
69981;SDS011;57319;56.274;43.980;2022-11-15T16:39:59;21.58;;;4.78;;
69981;SDS011;57319;56.274;43.980;2022-11-15T16:42:24;12.98;;;4.97;;
69981;SDS011;57319;56.274;43.980;2022-11-15T16:44:50;14.88;;;5.45;;
69981;SDS011;57319;56.274;43.980;2022-11-15T16:47:17;13.15;;;5.15;;
69981;SDS011;57319;56.274;43.980;2022-11-15T16:49:47;11.40;;;4.47;;
69981;SDS011;57319;56.274;43.980;2022-11-15T16:52:13;14.85;;;4.50;;
69981;SDS011;57319;56.274;43.980;2022-11-15T16:54:39;20.60;;;4.47;;
69981;SDS011;57319;56.274;43.980;2022-11-15T16:57:07;21.45;;;4.43;;
69981;SDS011;57319;56.274;43.980;2022-11-15T16:59:35;29.42;;;4.80;;
69981;SDS011;57319;56.274;43.980;2022-11-15T17:02:01;15.32;;;4.15;;
69981;SDS011;57319;56.274;43.980;2022-11-15T17:04:27;16.15;;;3.50;;
69981;SDS011;57319;56.274;43.980;2022-11-15T17:06:58;2.75;;;2.60;;
69981;SDS011;57319;56.274;43.980;2022-11-15T17:09:24;4.82;;;3.28;;
69981;SDS011;57319;56.274;43.980;2022-11-15T17:11:50;21.90;;;3.90;;
69981;SDS011;57319;56.274;43.980;2022-11-15T17:14:16;9.73;;;3.45;;
69981;SDS011;57319;56.274;43.980;2022-11-15T17:16:42;6.10;;;3.13;;
69981;SDS011;57319;56.274;43.980;2022-11-15T17:19:16;21.83;;;3.42;;
69981;SDS011;57319;56.274;43.980;2022-11-15T17:21:44;12.10;;;3.58;;
69981;SDS011;57319;56.274;43.980;2022-11-15T17:24:11;10.32;;;3.47;;
69981;SDS011;57319;56.274;43.980;2022-11-15T17:26:37;4.45;;;3.22;;
69981;SDS011;57319;56.274;43.980;2022-11-15T17:29:03;13.52;;;3.53;;
69981;SDS011;57319;56.274;43.980;2022-11-15T17:31:32;18.83;;;3.72;;